Time;durP1;ratioP1;P1;durP2;ratioP2;P2;SDS_P1;SDS_P2;PMS_P1;PMS_P2;Temp;Humidity;BMP_temperature;BMP_pressure;BME280_temperature;BME280_humidity;BME280_pressure;Samples;Min_cycle;Max_cycle;Signal;HPM_P1;HPM_P2
2022/08/29 00:02:16;;;;;;;1.93;1.77;;;27.30;69.10;;;;;;5083423;28;20447;-66
2022/08/29 00:04:47;;;;;;;1.90;1.80;;;27.40;70.40;;;;;;5083935;28;20485;-66
2022/08/29 00:07:18;;;;;;;1.57;1.47;;;27.40;70.60;;;;;;5083210;28;20486;-66
2022/08/29 00:09:49;;;;;;;1.90;1.80;;;27.40;70.20;;;;;;5083564;28;20797;-66
2022/08/29 00:12:20;;;;;;;1.70;1.60;;;27.40;70.60;;;;;;5083955;28;20442;-66
2022/08/29 00:14:51;;;;;;;3.20;2.13;;;27.40;70.50;;;;;;5083570;28;20535;-65
2022/08/29 00:17:23;;;;;;;1.90;1.80;;;27.30;68.90;;;;;;5083466;28;20457;-66
2022/08/29 00:19:54;;;;;;;2.37;2.17;;;27.30;69.80;;;;;;5083184;28;20451;-66
2022/08/29 00:22:25;;;;;;;2.67;2.33;;;27.20;69.70;;;;;;5082608;28;20455;-66
2022/08/29 00:24:56;;;;;;;2.30;1.93;;;27.20;69.60;;;;;;5083199;28;20446;-66
2022/08/29 00:27:26;;;;;;;2.20;2.07;;;27.00;70.60;;;;;;5083649;28;20464;-65
2022/08/29 00:29:57;;;;;;;2.80;1.93;;;26.90;70.90;;;;;;5083646;28;20465;-65
2022/08/29 00:32:33;;;;;;;2.60;1.80;;;26.90;71.60;;;;;;5083334;28;20941;-66
2022/08/29 00:35:06;;;;;;;2.97;1.90;;;27.00;72.00;;;;;;5083705;28;20451;-66
2022/08/29 00:37:37;;;;;;;1.90;1.80;;;27.00;71.60;;;;;;5082730;28;20478;-66
2022/08/29 00:40:21;;;;;;;1.90;1.80;;;26.90;71.00;;;;;;5083494;28;20490;-66
2022/08/29 00:42:52;;;;;;;2.60;2.40;;;26.80;70.80;;;;;;5083462;28;20477;-66
2022/08/29 00:45:24;;;;;;;2.37;2.17;;;26.80;69.90;;;;;;5083678;28;20452;-66
2022/08/29 00:47:59;;;;;;;2.17;1.97;;;26.60;70.40;;;;;;5083434;28;20446;-66
2022/08/29 00:50:34;;;;;;;2.90;2.30;;;26.50;72.20;;;;;;5083172;28;20454;-66
2022/08/29 00:53:09;;;;;;;1.90;1.80;;;26.50;72.00;;;;;;5083084;28;20450;-65
2022/08/29 00:55:41;;;;;;;2.27;2.07;;;26.60;71.80;;;;;;5083466;28;20449;-66
2022/08/29 00:58:25;;;;;;;2.13;1.93;;;26.50;71.00;;;;;;5083597;28;20438;-66
2022/08/29 01:00:57;;;;;;;1.73;1.63;;;26.40;70.70;;;;;;5083406;28;20619;-66
2022/08/29 01:03:31;;;;;;;2.03;1.93;;;26.40;71.30;;;;;;5083533;28;20814;-66
2022/08/29 01:06:04;;;;;;;2.33;2.07;;;26.30;71.90;;;;;;5082749;28;20454;-66
2022/08/29 01:08:35;;;;;;;1.97;1.87;;;26.30;72.70;;;;;;5083478;28;20473;-66
2022/08/29 01:13:57;;;;;;;2.17;2.00;;;26.40;72.90;;;;;;5083205;28;20450;-66
2022/08/29 01:16:28;;;;;;;2.03;1.93;;;26.30;72.90;;;;;;5083153;28;20420;-65
2022/08/29 01:19:07;;;;;;;1.63;1.53;;;26.10;73.00;;;;;;5083584;28;20489;-66
2022/08/29 01:21:45;;;;;;;2.20;2.00;;;26.10;74.30;;;;;;5081818;28;20500;-66
2022/08/29 01:24:30;;;;;;;2.23;2.03;;;26.10;74.80;;;;;;5083378;28;20452;-66
2022/08/29 01:27:01;;;;;;;2.23;2.07;;;26.10;73.60;;;;;;5083188;28;20557;-66
2022/08/29 01:29:33;;;;;;;2.20;2.00;;;26.00;73.00;;;;;;5083268;28;20449;-66
2022/08/29 01:32:06;;;;;;;2.70;2.40;;;25.90;73.80;;;;;;5082917;28;20451;-66
2022/08/29 01:34:36;;;;;;;2.07;1.83;;;25.90;73.60;;;;;;5083468;28;20467;-66
2022/08/29 01:37:10;;;;;;;3.27;2.43;;;25.80;73.70;;;;;;5085818;28;20463;-65
2022/08/29 01:39:45;;;;;;;2.37;2.17;;;25.80;74.00;;;;;;5087071;28;20458;-66
2022/08/29 01:42:17;;;;;;;2.53;2.33;;;25.80;74.30;;;;;;5086250;28;20502;-65
2022/08/29 01:44:51;;;;;;;1.93;1.70;;;25.70;74.20;;;;;;5086619;28;20443;-64
2022/08/29 01:47:23;;;;;;;1.87;1.77;;;25.60;74.70;;;;;;5086566;28;20541;-64
2022/08/29 01:49:54;;;;;;;1.87;1.67;;;25.60;75.30;;;;;;5086756;28;20440;-64
2022/08/29 01:52:25;;;;;;;2.40;2.20;;;25.50;75.50;;;;;;5085876;28;20450;-65
2022/08/29 01:54:57;;;;;;;2.50;2.30;;;25.40;75.70;;;;;;5086663;28;20455;-65
2022/08/29 01:57:28;;;;;;;1.80;1.67;;;25.40;76.50;;;;;;5086224;28;20447;-64
2022/08/29 01:59:59;;;;;;;2.47;2.17;;;25.30;77.20;;;;;;5086706;28;20959;-65
2022/08/29 02:02:30;;;;;;;2.27;1.83;;;25.30;76.60;;;;;;5085736;28;20496;-65
2022/08/29 02:05:01;;;;;;;3.90;2.07;;;25.20;77.10;;;;;;5086659;28;20439;-65
2022/08/29 02:07:32;;;;;;;2.43;2.23;;;25.20;77.60;;;;;;5085502;28;20443;-65
2022/08/29 02:10:05;;;;;;;2.20;1.90;;;25.20;78.20;;;;;;5086396;28;20443;-65
2022/08/29 02:12:36;;;;;;;2.43;1.77;;;25.00;79.30;;;;;;5085824;28;20451;-65
2022/08/29 02:15:08;;;;;;;2.03;1.83;;;25.00;79.70;;;;;;5086055;28;20451;-65
2022/08/29 02:17:39;;;;;;;3.10;1.70;;;25.00;80.40;;;;;;5085986;28;20438;-65
2022/08/29 02:20:10;;;;;;;3.03;2.30;;;24.90;81.40;;;;;;5086308;28;20937;-64
2022/08/29 02:22:42;;;;;;;2.17;1.97;;;24.80;82.30;;;;;;5084914;28;20489;-64
2022/08/29 02:28:02;;;;;;;1.97;1.87;;;24.80;82.80;;;;;;5085731;28;20455;-65
2022/08/29 02:30:33;;;;;;;2.20;2.00;;;24.60;83.50;;;;;;5086012;28;20449;-65
2022/08/29 02:33:04;;;;;;;1.77;1.63;;;24.50;85.10;;;;;;5085282;28;20454;-66
2022/08/29 02:35:36;;;;;;;3.13;1.97;;;24.40;85.60;;;;;;5086163;28;20427;-64
2022/08/29 02:38:12;;;;;;;2.60;2.07;;;24.30;85.80;;;;;;5085953;28;20487;-65
2022/08/29 02:40:45;;;;;;;2.30;1.57;;;24.20;86.30;;;;;;5085578;28;20443;-65
2022/08/29 02:43:18;;;;;;;1.77;1.67;;;24.20;86.80;;;;;;5085086;28;20495;-65
2022/08/29 02:45:48;;;;;;;2.33;2.07;;;24.10;87.50;;;;;;5085323;28;20448;-64
2022/08/29 02:48:20;;;;;;;2.20;2.00;;;24.00;88.10;;;;;;5085445;28;20443;-65
2022/08/29 02:50:52;;;;;;;2.90;2.00;;;23.90;88.50;;;;;;5084920;28;20447;-64
2022/08/29 02:53:28;;;;;;;2.27;2.10;;;23.80;89.20;;;;;;5085486;28;20444;-64
2022/08/29 02:56:00;;;;;;;1.70;1.60;;;23.70;89.90;;;;;;5085346;28;20446;-65
2022/08/29 02:58:33;;;;;;;2.20;2.00;;;23.70;90.10;;;;;;5085333;28;20451;-64
2022/08/29 03:01:04;;;;;;;2.20;2.00;;;23.60;90.40;;;;;;5084924;28;20447;-64
2022/08/29 03:03:35;;;;;;;2.30;1.70;;;23.50;91.00;;;;;;5084928;28;20470;-64
2022/08/29 03:06:06;;;;;;;2.70;1.67;;;23.40;91.40;;;;;;5084795;28;20762;-64
2022/08/29 03:08:38;;;;;;;2.93;1.53;;;23.30;91.40;;;;;;5085477;28;20943;-64
2022/08/29 03:11:10;;;;;;;1.73;1.60;;;23.30;91.60;;;;;;5084987;28;20519;-64
2022/08/29 03:13:41;;;;;;;3.37;2.10;;;23.20;91.80;;;;;;5084826;28;20439;-65
2022/08/29 03:16:12;;;;;;;2.13;1.93;;;23.20;92.00;;;;;;5084833;28;20459;-66
2022/08/29 03:18:43;;;;;;;2.30;2.10;;;23.10;92.40;;;;;;5085100;28;20447;-67
2022/08/29 03:21:20;;;;;;;1.87;1.77;;;23.10;92.60;;;;;;5084672;28;20796;-66
2022/08/29 03:23:51;;;;;;;1.70;1.60;;;23.00;92.70;;;;;;5084897;28;20862;-65
2022/08/29 03:26:24;;;;;;;2.80;1.90;;;22.90;93.00;;;;;;5084943;28;20448;-66
2022/08/29 03:28:55;;;;;;;2.37;1.90;;;22.90;93.50;;;;;;5084506;28;20444;-66
2022/08/29 03:31:26;;;;;;;2.50;1.70;;;22.90;93.40;;;;;;5084798;28;20443;-66
2022/08/29 03:33:57;;;;;;;1.70;1.60;;;22.80;93.60;;;;;;5084697;28;20482;-66
2022/08/29 03:36:28;;;;;;;2.30;2.10;;;22.70;93.80;;;;;;5084097;28;20470;-66
2022/08/29 03:38:59;;;;;;;1.93;1.60;;;22.60;93.90;;;;;;5084795;28;20428;-66
2022/08/29 03:41:31;;;;;;;3.13;1.70;;;22.60;94.30;;;;;;5084539;28;20453;-65
2022/08/29 03:44:02;;;;;;;2.50;2.30;;;22.60;94.50;;;;;;5084301;28;20483;-66
2022/08/29 03:46:34;;;;;;;2.10;1.90;;;22.60;94.60;;;;;;5084343;28;20520;-65
2022/08/29 03:49:06;;;;;;;2.30;2.10;;;22.50;94.80;;;;;;5084507;28;20501;-65
2022/08/29 03:51:37;;;;;;;2.37;1.87;;;22.60;94.90;;;;;;5083717;28;20440;-65
2022/08/29 03:54:08;;;;;;;2.80;2.40;;;22.50;94.80;;;;;;5084421;28;20934;-65
2022/08/29 03:56:40;;;;;;;2.27;1.90;;;22.40;95.00;;;;;;5084055;28;20414;-65
2022/08/29 03:59:11;;;;;;;2.20;2.00;;;22.30;95.10;;;;;;5083634;28;20443;-65
2022/08/29 04:01:42;;;;;;;2.23;2.03;;;22.30;95.30;;;;;;5083809;28;20452;-65
2022/08/29 04:05:05;;;;;;;2.40;1.87;;;22.20;95.50;;;;;;5083646;28;20463;-65
2022/08/29 04:07:05;;;;;;;1.90;1.50;;;22.20;95.90;;;;;;5083123;28;20443;-65
2022/08/29 04:09:36;;;;;;;1.80;1.70;;;22.10;96.00;;;;;;5084243;28;20446;-65
2022/08/29 04:12:10;;;;;;;3.50;1.93;;;22.10;96.30;;;;;;5083473;28;20451;-65
2022/08/29 04:14:41;;;;;;;1.80;1.67;;;22.10;96.60;;;;;;5083773;28;20454;-65
2022/08/29 04:17:12;;;;;;;1.80;1.70;;;22.00;96.60;;;;;;5083746;28;20462;-65
2022/08/29 04:19:43;;;;;;;2.10;1.90;;;22.00;96.80;;;;;;5083844;28;20421;-65
2022/08/29 04:22:14;;;;;;;2.13;1.93;;;21.90;96.90;;;;;;5082620;28;20491;-65
2022/08/29 04:24:44;;;;;;;2.67;1.70;;;21.90;97.00;;;;;;5083848;28;20430;-65
2022/08/29 04:27:17;;;;;;;2.53;2.33;;;21.80;97.30;;;;;;5083414;28;20414;-65
2022/08/29 04:29:48;;;;;;;2.43;2.20;;;21.80;97.50;;;;;;5083815;28;20418;-65
2022/08/29 04:32:19;;;;;;;1.97;1.83;;;21.70;97.60;;;;;;5083408;28;20449;-65
2022/08/29 04:34:49;;;;;;;2.40;2.20;;;21.70;97.60;;;;;;5083512;28;20448;-65
2022/08/29 04:37:20;;;;;;;1.63;1.53;;;21.70;97.80;;;;;;5082836;28;20428;-66
2022/08/29 04:39:51;;;;;;;4.37;1.80;;;21.70;97.90;;;;;;5083598;28;20432;-65
2022/08/29 04:42:23;;;;;;;2.50;1.77;;;21.70;98.10;;;;;;5083126;28;20472;-65
2022/08/29 04:44:54;;;;;;;2.23;1.90;;;21.60;98.30;;;;;;5083238;28;20440;-65
2022/08/29 04:47:25;;;;;;;3.40;1.73;;;21.50;98.60;;;;;;5083032;28;20421;-65
2022/08/29 04:49:56;;;;;;;1.97;1.80;;;21.50;99.50;;;;;;5083469;28;20448;-65
2022/08/29 04:52:29;;;;;;;2.60;1.70;;;21.40;99.40;;;;;;5082464;28;20462;-66
2022/08/29 04:54:59;;;;;;;2.47;2.10;;;21.40;99.50;;;;;;5083514;28;20454;-65
2022/08/29 04:57:32;;;;;;;1.80;1.70;;;21.40;99.60;;;;;;5083375;28;20430;-65
2022/08/29 05:00:05;;;;;;;3.27;1.93;;;21.30;99.90;;;;;;5083090;28;20451;-65
2022/08/29 05:02:35;;;;;;;1.80;1.70;;;21.20;99.90;;;;;;5082975;28;20594;-65
2022/08/29 05:05:07;;;;;;;2.63;1.70;;;21.20;99.90;;;;;;5082909;28;20451;-65
2022/08/29 05:07:38;;;;;;;2.07;1.87;;;21.20;99.90;;;;;;5082464;28;20434;-65
2022/08/29 05:10:12;;;;;;;2.20;1.90;;;21.20;99.90;;;;;;5085546;28;20432;-65
2022/08/29 05:12:45;;;;;;;1.60;1.50;;;21.10;99.90;;;;;;5086792;28;20428;-65
2022/08/29 05:15:16;;;;;;;2.43;2.23;;;21.10;99.90;;;;;;5086605;28;20447;-65
2022/08/29 05:17:47;;;;;;;2.03;1.80;;;21.10;99.90;;;;;;5086749;28;20425;-65
2022/08/29 05:20:18;;;;;;;3.07;2.20;;;21.10;99.90;;;;;;5087211;28;20426;-65
2022/08/29 05:22:49;;;;;;;2.13;1.83;;;21.00;99.90;;;;;;5086510;28;20487;-65
2022/08/29 05:25:22;;;;;;;2.20;1.97;;;20.90;99.90;;;;;;5087052;28;20452;-65
2022/08/29 05:27:54;;;;;;;2.00;1.90;;;20.90;99.90;;;;;;5086974;28;20545;-65
2022/08/29 05:30:25;;;;;;;2.73;2.43;;;20.80;99.90;;;;;;5087088;28;20422;-65
2022/08/29 05:33:04;;;;;;;2.30;2.10;;;20.80;99.90;;;;;;5086851;28;20425;-65
2022/08/29 05:35:36;;;;;;;2.17;1.97;;;20.70;99.90;;;;;;5086832;28;20451;-65
2022/08/29 05:38:07;;;;;;;2.73;2.53;;;20.70;99.90;;;;;;5086436;28;20418;-65
2022/08/29 05:40:39;;;;;;;2.43;2.00;;;20.70;99.90;;;;;;5087462;28;20406;-65
2022/08/29 05:43:11;;;;;;;1.97;1.87;;;20.60;99.90;;;;;;5086595;28;20502;-65
2022/08/29 05:45:42;;;;;;;2.27;1.57;;;20.70;99.90;;;;;;5086690;28;20548;-65
2022/08/29 05:48:13;;;;;;;2.13;1.67;;;20.60;99.90;;;;;;5086777;28;20448;-64
2022/08/29 05:50:45;;;;;;;2.40;2.10;;;20.60;99.90;;;;;;5086352;28;20516;-65
2022/08/29 05:53:17;;;;;;;2.20;2.00;;;20.50;99.90;;;;;;5086753;28;20463;-65
2022/08/29 05:55:48;;;;;;;1.70;1.50;;;20.50;99.90;;;;;;5086549;28;20447;-64
2022/08/29 05:58:21;;;;;;;2.90;2.10;;;20.50;99.90;;;;;;5086558;28;20447;-65
2022/08/29 06:00:51;;;;;;;2.20;1.93;;;20.50;99.90;;;;;;5086437;28;20559;-65
2022/08/29 06:03:23;;;;;;;3.00;2.10;;;20.40;99.90;;;;;;5086410;28;20491;-65
2022/08/29 06:05:54;;;;;;;3.00;2.50;;;20.40;99.90;;;;;;5085919;28;20423;-64
2022/08/29 06:08:24;;;;;;;2.33;2.13;;;20.40;99.90;;;;;;5086533;28;20438;-64
2022/08/29 06:10:55;;;;;;;2.43;2.20;;;20.30;99.90;;;;;;5086528;28;20442;-64
2022/08/29 06:13:28;;;;;;;3.27;2.17;;;20.30;99.90;;;;;;5086192;28;20455;-63
2022/08/29 06:15:58;;;;;;;1.90;1.73;;;20.30;99.90;;;;;;5086024;28;20414;-64
2022/08/29 06:18:29;;;;;;;3.47;2.23;;;20.30;99.90;;;;;;5086262;28;20818;-64
2022/08/29 06:21:06;;;;;;;2.17;1.73;;;20.20;99.90;;;;;;5084805;28;20434;-64
2022/08/29 06:23:37;;;;;;;2.80;2.50;;;20.20;99.90;;;;;;5085916;28;20480;-64
2022/08/29 06:26:08;;;;;;;2.43;2.13;;;20.10;99.90;;;;;;5086290;28;20423;-65
2022/08/29 06:28:45;;;;;;;2.50;2.30;;;20.20;99.90;;;;;;5086119;28;20799;-63
2022/08/29 06:31:19;;;;;;;2.60;2.33;;;20.10;99.90;;;;;;5085760;28;20454;-64
2022/08/29 06:33:53;;;;;;;2.40;1.97;;;20.10;99.90;;;;;;5086030;28;20445;-64
2022/08/29 06:36:25;;;;;;;2.53;2.33;;;20.10;99.90;;;;;;5084764;28;20518;-64
2022/08/29 06:38:57;;;;;;;2.60;2.40;;;20.00;99.90;;;;;;5085875;28;20430;-64
2022/08/29 06:41:29;;;;;;;2.30;2.07;;;20.00;99.90;;;;;;5085970;28;20444;-64
2022/08/29 06:44:01;;;;;;;2.43;2.23;;;20.00;99.90;;;;;;5085463;28;20902;-64
2022/08/29 06:46:34;;;;;;;2.13;1.93;;;19.90;99.90;;;;;;5085496;28;20444;-64
2022/08/29 06:49:06;;;;;;;2.43;2.23;;;19.90;99.90;;;;;;5085619;28;20468;-64
2022/08/29 06:51:38;;;;;;;5.50;2.10;;;19.90;99.90;;;;;;5085132;28;20544;-64
2022/08/29 06:54:10;;;;;;;2.57;2.37;;;19.80;99.90;;;;;;5085685;28;20407;-64
2022/08/29 06:56:42;;;;;;;2.80;2.60;;;19.80;99.90;;;;;;5085449;28;20414;-64
2022/08/29 06:59:15;;;;;;;3.03;2.20;;;19.80;99.90;;;;;;5085487;28;20448;-64
2022/08/29 07:01:47;;;;;;;2.53;2.33;;;19.70;99.90;;;;;;5085328;28;20425;-64
2022/08/29 07:04:18;;;;;;;2.47;2.27;;;19.70;99.90;;;;;;5085421;28;20473;-64
2022/08/29 07:06:49;;;;;;;2.40;2.20;;;19.60;99.90;;;;;;5084300;28;20453;-64
2022/08/29 07:09:20;;;;;;;2.53;2.10;;;19.60;99.90;;;;;;5085263;28;20428;-65
2022/08/29 07:11:52;;;;;;;2.70;2.50;;;19.60;99.90;;;;;;5085132;28;20414;-63
2022/08/29 07:14:25;;;;;;;3.60;2.60;;;19.50;99.90;;;;;;5085035;28;20418;-64
2022/08/29 07:16:56;;;;;;;2.60;1.97;;;19.50;99.90;;;;;;5084658;28;20441;-64
2022/08/29 07:19:27;;;;;;;3.07;2.77;;;19.40;99.90;;;;;;5085343;28;20456;-63
2022/08/29 07:21:59;;;;;;;2.97;1.90;;;19.40;99.90;;;;;;5084302;28;20433;-64
2022/08/29 07:24:30;;;;;;;2.27;2.00;;;19.40;99.90;;;;;;5084727;28;20487;-65
2022/08/29 07:27:01;;;;;;;4.17;2.13;;;19.30;99.90;;;;;;5084712;28;20738;-64
2022/08/29 07:29:34;;;;;;;2.50;2.30;;;19.30;99.90;;;;;;5084853;28;20456;-64
2022/08/29 07:32:05;;;;;;;1.93;1.80;;;19.30;99.90;;;;;;5084293;28;20443;-64
2022/08/29 07:34:36;;;;;;;2.20;2.00;;;19.30;99.90;;;;;;5083997;28;20418;-64
2022/08/29 07:37:09;;;;;;;3.53;2.50;;;19.20;99.90;;;;;;5083808;28;21030;-64
2022/08/29 07:39:39;;;;;;;2.20;2.00;;;19.30;99.90;;;;;;5084667;28;20916;-64
2022/08/29 07:42:10;;;;;;;2.27;2.03;;;19.20;99.90;;;;;;5084398;28;20446;-64
2022/08/29 07:44:43;;;;;;;2.83;2.00;;;19.20;99.90;;;;;;5084182;28;20458;-65
2022/08/29 07:47:13;;;;;;;2.83;2.50;;;19.10;99.90;;;;;;5083990;28;20454;-64
2022/08/29 07:49:44;;;;;;;2.50;2.13;;;19.10;99.90;;;;;;5084534;28;20454;-64
2022/08/29 07:52:15;;;;;;;2.80;2.10;;;19.00;99.90;;;;;;5083465;28;20443;-64
2022/08/29 07:54:46;;;;;;;3.00;2.47;;;19.00;99.90;;;;;;5084648;28;20443;-64
2022/08/29 07:57:18;;;;;;;2.90;2.67;;;18.90;99.90;;;;;;5084175;28;20447;-65
2022/08/29 07:59:51;;;;;;;3.43;2.20;;;18.90;99.90;;;;;;5084244;28;20447;-64
2022/08/29 08:02:22;;;;;;;2.23;2.03;;;18.90;99.90;;;;;;5083733;28;20458;-64
2022/08/29 08:04:53;;;;;;;3.10;2.50;;;18.90;99.90;;;;;;5084153;28;20853;-64
2022/08/29 08:07:23;;;;;;;3.57;2.30;;;18.90;99.90;;;;;;5083258;28;20794;-64
2022/08/29 08:09:58;;;;;;;2.30;2.10;;;18.90;99.90;;;;;;5084415;28;20894;-64
2022/08/29 08:12:29;;;;;;;2.20;1.97;;;18.80;99.90;;;;;;5083906;28;20445;-64
2022/08/29 08:15:02;;;;;;;2.83;1.93;;;18.70;99.90;;;;;;5083680;28;20440;-64
2022/08/29 08:17:33;;;;;;;2.90;2.60;;;18.60;99.90;;;;;;5083806;28;20944;-64
2022/08/29 08:20:05;;;;;;;3.17;2.33;;;18.60;99.90;;;;;;5084075;28;20946;-64
2022/08/29 08:22:36;;;;;;;3.00;2.00;;;18.50;99.90;;;;;;5083561;28;20478;-64
2022/08/29 08:25:08;;;;;;;2.70;1.90;;;18.50;99.90;;;;;;5083992;28;20491;-64
2022/08/29 08:27:39;;;;;;;4.17;3.70;;;18.50;99.90;;;;;;5083418;28;20433;-64
2022/08/29 08:30:15;;;;;;;3.40;2.20;;;18.40;99.90;;;;;;5083756;28;20456;-64
2022/08/29 08:32:47;;;;;;;2.40;2.17;;;18.30;99.90;;;;;;5083518;28;20426;-64
2022/08/29 08:35:23;;;;;;;2.53;2.13;;;18.30;99.90;;;;;;5083347;28;20439;-64
2022/08/29 08:37:55;;;;;;;2.80;2.20;;;18.20;99.90;;;;;;5082877;28;20465;-64
2022/08/29 08:40:27;;;;;;;2.93;2.03;;;18.20;99.90;;;;;;5083788;28;20444;-65
2022/08/29 08:43:00;;;;;;;3.63;2.63;;;18.10;99.90;;;;;;5083174;28;20475;-64
2022/08/29 08:45:37;;;;;;;6.93;2.27;;;18.10;99.90;;;;;;5083217;28;20458;-64
2022/08/29 08:48:11;;;;;;;2.37;2.17;;;18.00;99.90;;;;;;5083443;28;20447;-64
2022/08/29 08:50:46;;;;;;;4.03;2.87;;;18.00;99.90;;;;;;5083292;28;20467;-64
2022/08/29 08:53:29;;;;;;;3.63;2.20;;;18.00;99.90;;;;;;5083163;28;20494;-64
2022/08/29 08:56:00;;;;;;;2.57;2.37;;;18.00;99.90;;;;;;5083267;28;20447;-64
2022/08/29 08:58:34;;;;;;;3.10;2.03;;;18.00;99.90;;;;;;5083506;28;20439;-64
2022/08/29 09:01:22;;;;;;;3.03;2.27;;;18.00;99.90;;;;;;5083479;28;20424;-64
2022/08/29 09:04:09;;;;;;;2.70;2.13;;;17.90;99.90;;;;;;5083483;28;20459;-64
2022/08/29 09:06:57;;;;;;;2.30;2.10;;;17.90;99.90;;;;;;5082328;28;20499;-64
2022/08/29 09:09:36;;;;;;;2.70;2.43;;;17.90;99.90;;;;;;5083585;28;20452;-64
2022/08/29 09:12:21;;;;;;;3.07;2.13;;;17.90;99.90;;;;;;5083015;28;20451;-64
2022/08/29 09:15:06;;;;;;;2.77;2.57;;;17.90;99.90;;;;;;5083003;28;20456;-64
2022/08/29 09:17:48;;;;;;;3.00;2.70;;;17.80;99.90;;;;;;5083015;28;20459;-64
2022/08/29 09:20:22;;;;;;;3.43;2.00;;;17.70;99.90;;;;;;5083417;28;20447;-64
2022/08/29 09:23:00;;;;;;;2.33;2.13;;;17.70;99.90;;;;;;5082946;28;20427;-64
2022/08/29 09:25:34;;;;;;;2.80;2.50;;;17.60;99.90;;;;;;5083289;28;20536;-64
2022/08/29 09:28:07;;;;;;;2.80;2.30;;;17.60;99.90;;;;;;5083162;28;20457;-64
2022/08/29 09:30:40;;;;;;;2.67;2.27;;;17.60;99.90;;;;;;5083184;28;20469;-64
2022/08/29 09:33:14;;;;;;;2.97;2.47;;;17.60;99.90;;;;;;5083135;28;20450;-64
2022/08/29 09:35:46;;;;;;;3.87;2.40;;;17.50;99.90;;;;;;5082618;28;20421;-64
2022/08/29 09:38:24;;;;;;;2.10;1.73;;;17.50;99.90;;;;;;5082939;28;20505;-64
2022/08/29 09:40:57;;;;;;;3.00;2.13;;;17.50;99.90;;;;;;5083004;28;20922;-64
2022/08/29 09:43:34;;;;;;;2.30;2.10;;;17.40;99.90;;;;;;5082577;28;20971;-64
2022/08/29 09:46:14;;;;;;;2.60;2.40;;;17.40;99.90;;;;;;5082679;28;20490;-64
2022/08/29 09:48:48;;;;;;;3.13;2.30;;;17.30;99.90;;;;;;5082522;28;20479;-64
2022/08/29 09:51:27;;;;;;;3.90;2.60;;;17.30;99.90;;;;;;5082124;28;20448;-64
2022/08/29 09:54:17;;;;;;;2.50;2.27;;;17.20;99.90;;;;;;5082999;28;20429;-64
2022/08/29 09:56:55;;;;;;;2.47;2.17;;;17.20;99.90;;;;;;5084215;28;20812;-64
2022/08/29 09:59:29;;;;;;;2.70;2.30;;;17.10;99.90;;;;;;5086609;28;20865;-64
2022/08/29 10:02:24;;;;;;;3.13;2.40;;;17.10;99.90;;;;;;5086672;28;20825;-64
2022/08/29 10:05:00;;;;;;;2.67;2.40;;;17.10;99.90;;;;;;5086384;28;20415;-64
2022/08/29 10:07:32;;;;;;;4.27;2.90;;;17.10;99.90;;;;;;5085549;28;20458;-64
2022/08/29 10:10:15;;;;;;;3.37;3.07;;;17.10;99.90;;;;;;5086542;28;20451;-64
2022/08/29 10:12:52;;;;;;;2.77;2.30;;;17.00;99.90;;;;;;5086181;28;20442;-64
2022/08/29 10:15:27;;;;;;;2.50;2.30;;;16.90;99.90;;;;;;5086020;28;20447;-64
2022/08/29 10:18:27;;;;;;;3.00;2.50;;;16.80;99.90;;;;;;5085733;28;20943;-65
2022/08/29 10:21:20;;;;;;;3.87;2.87;;;16.80;99.90;;;;;;5085393;28;20431;-64
2022/08/29 10:24:02;;;;;;;4.10;2.47;;;16.90;99.90;;;;;;5086074;28;20428;-65
2022/08/29 10:26:41;;;;;;;2.50;2.30;;;16.80;99.90;;;;;;5086097;28;20457;-63
2022/08/29 10:29:20;;;;;;;2.63;2.30;;;16.80;99.90;;;;;;5086166;28;20436;-64
2022/08/29 10:32:01;;;;;;;2.50;2.30;;;16.70;99.90;;;;;;5085670;28;20465;-64
2022/08/29 10:34:51;;;;;;;4.20;2.90;;;16.70;99.90;;;;;;5085979;28;20857;-64
2022/08/29 10:37:32;;;;;;;2.97;2.20;;;16.60;99.90;;;;;;5084946;28;20447;-65
2022/08/29 10:40:07;;;;;;;3.83;3.13;;;16.60;99.90;;;;;;5085942;28;20443;-64
2022/08/29 10:42:41;;;;;;;3.80;2.60;;;16.60;99.90;;;;;;5085337;28;20536;-64
2022/08/29 10:45:19;;;;;;;3.27;2.60;;;16.50;99.90;;;;;;5085521;28;20432;-65
2022/08/29 10:47:55;;;;;;;3.70;2.40;;;16.50;99.90;;;;;;5085581;28;20488;-64
2022/08/29 10:50:37;;;;;;;3.10;2.77;;;16.50;99.90;;;;;;5085843;28;20451;-64
2022/08/29 10:53:21;;;;;;;2.67;2.47;;;16.50;99.90;;;;;;5085475;28;20447;-64
2022/08/29 10:55:57;;;;;;;3.17;2.20;;;16.40;99.90;;;;;;5085444;28;20451;-64
2022/08/29 10:58:45;;;;;;;3.90;2.40;;;16.40;99.90;;;;;;5085193;28;20429;-64
2022/08/29 11:01:22;;;;;;;2.90;2.33;;;16.40;99.90;;;;;;5085398;28;20466;-64
2022/08/29 11:04:15;;;;;;;2.57;2.20;;;16.30;99.90;;;;;;5085078;28;20455;-65
2022/08/29 11:06:55;;;;;;;2.70;2.37;;;16.30;99.90;;;;;;5084477;28;20498;-64
2022/08/29 11:09:31;;;;;;;3.60;3.10;;;16.30;99.90;;;;;;5085126;28;20450;-64
2022/08/29 11:12:08;;;;;;;3.17;2.40;;;16.20;99.90;;;;;;5085291;28;21017;-64
2022/08/29 11:14:50;;;;;;;4.57;2.70;;;16.20;99.90;;;;;;5085343;28;20522;-64
2022/08/29 11:17:23;;;;;;;2.80;2.30;;;16.20;99.90;;;;;;5084689;28;20447;-64
2022/08/29 11:20:03;;;;;;;2.57;2.37;;;16.10;99.90;;;;;;5084854;28;20452;-64
2022/08/29 11:22:40;;;;;;;3.27;2.50;;;16.10;99.90;;;;;;5083942;28;20446;-65
2022/08/29 11:25:15;;;;;;;3.47;2.87;;;16.20;99.90;;;;;;5084972;28;20454;-65
2022/08/29 11:27:56;;;;;;;3.00;2.63;;;16.20;99.90;;;;;;5084786;28;20852;-65
2022/08/29 11:30:36;;;;;;;5.47;2.20;;;16.10;99.90;;;;;;5084998;28;20491;-64
2022/08/29 11:33:20;;;;;;;2.83;2.57;;;16.10;99.90;;;;;;5084931;28;20482;-64
2022/08/29 11:36:08;;;;;;;2.73;2.23;;;16.00;99.90;;;;;;5083971;28;20443;-64
2022/08/29 11:39:04;;;;;;;2.77;2.40;;;16.00;99.90;;;;;;5084387;28;20430;-65
2022/08/29 11:41:39;;;;;;;2.60;2.40;;;16.00;99.90;;;;;;5084453;28;20458;-65
2022/08/29 11:44:20;;;;;;;3.97;2.90;;;16.00;99.90;;;;;;5084530;28;20443;-65
2022/08/29 11:46:51;;;;;;;2.77;2.20;;;16.00;99.90;;;;;;5084478;28;20522;-65
2022/08/29 11:49:37;;;;;;;3.00;2.70;;;16.00;99.90;;;;;;5084446;28;20470;-65
2022/08/29 11:52:26;;;;;;;2.53;2.30;;;15.90;99.90;;;;;;5083604;28;20417;-65
2022/08/29 11:55:23;;;;;;;3.00;2.63;;;15.90;99.90;;;;;;5084632;28;20448;-65
2022/08/29 11:58:31;;;;;;;2.90;2.37;;;15.90;99.90;;;;;;5080066;28;20451;-65
2022/08/29 12:01:05;;;;;;;3.23;2.40;;;15.80;99.90;;;;;;5072597;28;20455;-64
2022/08/29 12:03:49;;;;;;;3.53;2.30;;;15.80;99.90;;;;;;5084552;28;20530;-64
2022/08/29 12:06:27;;;;;;;2.70;2.50;;;15.70;99.90;;;;;;5083401;28;20510;-64
2022/08/29 12:09:07;;;;;;;3.53;2.57;;;15.70;99.90;;;;;;5083887;28;20457;-64
2022/08/29 12:12:17;;;;;;;2.90;2.20;;;15.70;99.90;;;;;;5083911;28;20533;-64
2022/08/29 12:14:51;;;;;;;3.13;2.83;;;15.70;99.90;;;;;;5083776;28;20462;-64
2022/08/29 12:17:45;;;;;;;4.50;2.40;;;15.70;99.90;;;;;;5083854;28;20938;-64
2022/08/29 12:20:42;;;;;;;4.10;2.70;;;15.60;99.90;;;;;;5083274;28;20443;-64
2022/08/29 12:23:26;;;;;;;4.33;2.40;;;15.60;99.90;;;;;;5083892;28;20451;-64
2022/08/29 12:25:59;;;;;;;3.40;2.50;;;15.50;99.90;;;;;;5083914;28;20463;-64
2022/08/29 12:28:58;;;;;;;2.67;2.47;;;15.50;99.90;;;;;;5083819;28;20439;-64
2022/08/29 12:31:43;;;;;;;4.80;2.80;;;15.60;99.90;;;;;;5083554;28;20439;-65
2022/08/29 12:35:01;;;;;;;3.50;3.20;;;15.50;99.90;;;;;;5083912;28;20486;-65
2022/08/29 12:37:47;;;;;;;2.97;2.20;;;15.50;99.90;;;;;;5079872;28;20426;-65
2022/08/29 12:40:38;;;;;;;4.03;2.97;;;15.50;99.90;;;;;;5084075;28;20447;-64
2022/08/29 12:43:24;;;;;;;3.27;2.97;;;15.40;99.90;;;;;;5083314;28;20503;-63
2022/08/29 12:45:56;;;;;;;2.87;2.43;;;15.40;99.90;;;;;;5083364;28;20645;-64
2022/08/29 12:48:32;;;;;;;3.53;2.70;;;15.30;99.90;;;;;;5083228;28;20494;-64
2022/08/29 12:51:05;;;;;;;3.33;2.90;;;15.30;99.90;;;;;;5082609;28;21145;-64
2022/08/29 12:53:36;;;;;;;3.00;2.23;;;15.30;99.90;;;;;;5083400;28;20452;-64
2022/08/29 12:56:17;;;;;;;4.07;2.87;;;15.30;99.90;;;;;;5083406;28;20464;-64
2022/08/29 12:58:56;;;;;;;3.00;2.10;;;15.30;99.90;;;;;;5083143;28;20439;-64
2022/08/29 13:01:31;;;;;;;3.20;2.47;;;15.30;99.90;;;;;;5083046;28;20447;-63
2022/08/29 13:04:06;;;;;;;4.60;3.20;;;15.20;99.90;;;;;;5083309;28;20451;-64
2022/08/29 13:06:50;;;;;;;3.60;2.90;;;15.20;99.90;;;;;;5082740;28;20562;-64
2022/08/29 13:09:27;;;;;;;4.20;2.90;;;15.20;99.90;;;;;;5083468;28;20443;-64
2022/08/29 13:12:14;;;;;;;3.70;3.00;;;15.20;99.90;;;;;;5082881;28;20451;-64
2022/08/29 13:14:58;;;;;;;2.57;2.30;;;15.20;99.90;;;;;;5083321;28;20451;-64
2022/08/29 13:17:31;;;;;;;2.80;2.60;;;15.30;99.90;;;;;;5083146;28;20457;-64
2022/08/29 13:20:40;;;;;;;3.10;2.80;;;15.20;99.90;;;;;;5082945;28;20438;-64
2022/08/29 13:23:17;;;;;;;2.83;2.57;;;15.20;99.90;;;;;;5083000;28;20432;-64
2022/08/29 13:25:54;;;;;;;3.30;2.60;;;15.20;99.90;;;;;;5083306;28;20430;-64
2022/08/29 13:28:34;;;;;;;3.47;2.57;;;15.10;99.90;;;;;;5082847;28;20513;-64
2022/08/29 13:31:28;;;;;;;3.50;2.80;;;15.10;99.90;;;;;;5083238;28;20448;-64
2022/08/29 13:34:21;;;;;;;4.30;3.57;;;15.10;99.90;;;;;;5081894;28;20426;-64
2022/08/29 13:37:01;;;;;;;3.30;2.43;;;15.10;99.90;;;;;;5086247;28;20535;-64